Baldwin, New York
Current Conditions -  °F | °C
As of 2:51 AM on Friday 28 Nov 2014 (Local Time) from KJFK Reporting Station
Few Clouds Few Clouds  
Wind Chill: 24°   Ceiling: Unl
Heat Index: 32°   Visibility: 10mi
Dew Point: 23°   Wind: 10mph
Humidity: 69%   Direction: 290°WNW
Pressure: 30.09"   Gusts: NA
Location:  40.66°N, 73.61°W
Report Text: KJFK 280751Z 29009KT 10SM FEW050 00/M05 A3009 RMK AO2 SLP190 T00001050 $
Loading
Personal Weather Stations






























Interactive Weather Map New forecast layout! Learn more

10-Day Weather Forecast

Advertisements
Track Severe Weather on mobile